KJRB

Downtown Manhattan / Wall St Heliport

New York, New York, USA
METAR KJRB 240135Z 00000KT 10SM CLR 24/11 A3000 RMK AO2 SLP300 PWINO FZRANO RVRNO
Observed Flight Rules
May-24 @ 01:35 UTC (24 minutes ago) Visual Flight Rules
Visibility Clouds
10 miles
  • Clear skies
Temperatures Readings
Current 24°C / 75°F
Dewpoint 11°C / 52°F
Humidity 44%
Altimeter 30" Hg
Pressure 1030 hPa
Elevation 7
METAR KJRB 240135Z 00000KT 10SM CLR 24/11 A3000 RMK AO2 SLP300 PWINO FZRANO RVRNO
Observed Flight Rules
May-24 @ 01:35 UTC
(24 minutes ago)
VFR
Clouds
  • Clear skies
Temperature Dewpoint
24°C / 75°F 11°C / 52°F
Humidity Altimeter Pressure
44% 30" Hg 1030 hPa